Time;durP1;ratioP1;P1;durP2;ratioP2;P2;SDS_P1;SDS_P2;PMS_P1;PMS_P2;Temp;Humidity;BMP_temperature;BMP_pressure;BME280_temperature;BME280_humidity;BME280_pressure;Samples;Min_cycle;Max_cycle;Signal;HPM_P1;HPM_P2
2021/07/13 04:17:33;;;;;;;;;;;;;;;17.70;98.46;97931.28;4953602;29;20047;-78
2021/07/13 04:19:58;;;;;;;4.18;1.90;;;;;;;17.61;99.38;97931.84;4954877;28;19914;-71
2021/07/13 04:22:23;;;;;;;1.83;1.23;;;;;;;17.73;99.01;97928.50;4954836;28;20033;-78
2021/07/13 04:24:49;;;;;;;3.08;1.30;;;;;;;17.41;98.93;97921.72;4954749;28;20034;-72
2021/07/13 04:27:15;;;;;;;2.50;1.45;;;;;;;17.39;98.65;97923.56;4971479;28;20022;-71
2021/07/13 04:29:40;;;;;;;2.65;1.42;;;;;;;17.32;98.70;97930.13;4974014;28;20030;-72
2021/07/13 04:32:06;;;;;;;5.80;1.40;;;;;;;17.48;98.38;97928.25;4997879;23;20650;-78
2021/07/13 04:34:32;;;;;;;5.50;1.85;;;;;;;17.57;98.25;97922.47;4993235;28;20466;-72
2021/07/13 04:36:57;;;;;;;2.88;1.55;;;;;;;17.75;97.84;97909.25;4993336;28;20025;-77
2021/07/13 04:39:23;;;;;;;1.80;1.35;;;;;;;17.98;95.78;97901.63;4993155;28;20022;-73
2021/07/13 04:41:48;;;;;;;3.40;1.70;;;;;;;17.96;95.65;97894.81;4993179;28;20517;-71
2021/07/13 04:44:14;;;;;;;3.42;1.30;;;;;;;18.08;93.37;97891.41;4993117;28;20630;-72
2021/07/13 04:46:39;;;;;;;3.40;1.67;;;;;;;18.28;93.70;97886.72;4992786;28;20387;-72
2021/07/13 04:49:04;;;;;;;5.75;1.50;;;;;;;18.20;93.74;97893.25;4993076;28;20038;-72
2021/07/13 04:51:30;;;;;;;2.17;1.70;;;;;;;18.41;94.04;97898.06;4992728;28;20474;-73
2021/07/13 04:53:55;;;;;;;2.95;1.60;;;;;;;18.39;92.41;97895.56;4992952;28;20034;-72
2021/07/13 04:56:20;;;;;;;1.70;1.23;;;;;;;18.43;91.15;97902.31;4992743;28;20022;-78
2021/07/13 04:58:46;;;;;;;7.47;1.98;;;;;;;18.41;91.75;97906.78;4992884;28;20027;-78
2021/07/13 05:01:11;;;;;;;5.55;1.50;;;;;;;18.48;92.82;97909.88;4992619;28;20029;-72
2021/07/13 05:03:37;;;;;;;4.05;1.55;;;;;;;18.59;92.93;97906.56;4992785;28;20022;-73
2021/07/13 05:06:02;;;;;;;3.17;1.67;;;;;;;18.46;93.50;97901.25;4992552;28;20081;-72
2021/07/13 05:08:27;;;;;;;2.65;1.25;;;;;;;18.50;92.90;97908.00;4992698;28;20483;-73
2021/07/13 05:10:53;;;;;;;4.43;1.38;;;;;;;18.51;92.75;97904.41;4992640;28;20030;-79
2021/07/13 05:13:19;;;;;;;5.32;1.70;;;;;;;18.50;92.81;97910.59;4992739;28;20041;-72
2021/07/13 05:15:45;;;;;;;2.92;1.35;;;;;;;18.51;93.65;97907.03;4992445;28;20026;-72
2021/07/13 05:18:11;;;;;;;2.92;1.40;;;;;;;18.49;92.65;97907.16;4992759;28;20018;-73
2021/07/13 05:20:40;;;;;;;6.38;1.27;;;;;;;18.67;92.22;97905.13;4992636;28;20093;-79
2021/07/13 05:23:08;;;;;;;3.25;1.48;;;;;;;18.55;92.28;97898.03;4992518;28;20030;-73
2021/07/13 05:25:35;;;;;;;2.60;1.30;;;;;;;18.82;91.20;97903.31;4992581;28;20073;-72
2021/07/13 05:28:00;;;;;;;3.08;1.42;;;;;;;19.06;89.10;97911.38;4994563;28;20455;-72
2021/07/13 05:30:27;;;;;;;5.05;1.30;;;;;;;19.09;88.73;97911.13;4996462;28;20134;-79
2021/07/13 05:32:53;;;;;;;4.93;1.17;;;;;;;19.12;88.87;97910.94;4996518;28;20533;-73
2021/07/13 05:35:18;;;;;;;2.63;1.40;;;;;;;19.03;89.53;97908.94;4996558;28;20051;-73
2021/07/13 05:37:44;;;;;;;4.35;1.15;;;;;;;19.07;89.56;97913.03;4996685;28;20022;-73
2021/07/13 05:40:10;;;;;;;5.35;1.30;;;;;;;19.00;90.37;97906.50;4996389;28;20030;-79
2021/07/13 05:42:36;;;;;;;2.42;1.33;;;;;;;19.10;89.03;97898.84;4996864;28;20076;-78
2021/07/13 05:45:03;;;;;;;3.05;1.10;;;;;;;19.32;88.81;97895.63;4996246;28;20034;-72
2021/07/13 05:47:28;;;;;;;2.33;1.38;;;;;;;19.58;86.12;97894.72;4996095;28;20106;-78
2021/07/13 05:49:54;;;;;;;3.45;1.23;;;;;;;19.44;87.30;97884.31;4996260;28;20109;-79
2021/07/13 05:52:20;;;;;;;2.72;1.35;;;;;;;19.90;84.51;97891.66;4996162;28;20046;-72
2021/07/13 05:54:45;;;;;;;3.15;1.35;;;;;;;20.19;83.90;97882.53;4996194;28;20026;-78
2021/07/13 05:57:10;;;;;;;4.07;1.77;;;;;;;20.09;82.93;97892.03;4996059;28;20535;-72
2021/07/13 05:59:35;;;;;;;2.72;1.75;;;;;;;19.76;85.35;97890.81;4995890;28;20133;-79
2021/07/13 06:02:01;;;;;;;4.65;1.55;;;;;;;19.96;84.50;97897.31;4995995;28;20027;-78
2021/07/13 06:04:26;;;;;;;3.40;1.60;;;;;;;19.96;82.82;97896.47;4995919;28;20057;-73
2021/07/13 06:06:51;;;;;;;3.03;1.23;;;;;;;19.75;85.58;97909.34;4994607;28;20032;-73
2021/07/13 06:09:17;;;;;;;5.80;1.60;;;;;;;19.93;85.50;97912.50;4995907;28;20104;-73
2021/07/13 06:11:42;;;;;;;3.10;1.67;;;;;;;20.09;84.06;97923.59;4995915;28;20062;-78
2021/07/13 06:14:07;;;;;;;4.50;1.60;;;;;;;19.88;83.73;97925.97;4995735;28;20105;-73
2021/07/13 06:16:33;;;;;;;3.85;1.52;;;;;;;19.77;85.19;97934.59;4995680;28;20021;-79
2021/07/13 06:18:58;;;;;;;3.35;1.77;;;;;;;19.46;85.46;97924.44;4995755;28;20444;-79
2021/07/13 06:21:23;;;;;;;4.57;1.60;;;;;;;19.45;86.02;97923.59;4995644;28;20161;-80
2021/07/13 06:23:49;;;;;;;2.20;1.55;;;;;;;19.54;86.37;97927.41;4995667;28;20033;-78
2021/07/13 06:26:14;;;;;;;3.33;1.75;;;;;;;19.52;86.95;97926.66;4995340;28;20045;-78
2021/07/13 06:28:39;;;;;;;4.90;2.47;;;;;;;19.58;86.25;97926.25;4995476;28;20121;-79
2021/07/13 06:31:05;;;;;;;3.92;3.10;;;;;;;19.53;86.44;97925.69;4995436;28;20030;-72
2021/07/13 06:33:30;;;;;;;6.20;1.90;;;;;;;19.48;86.61;97918.13;4995587;28;20073;-78
2021/07/13 06:35:55;;;;;;;4.90;2.22;;;;;;;19.54;86.85;97919.53;4995408;28;20045;-72
2021/07/13 06:38:21;;;;;;;7.47;2.22;;;;;;;19.68;85.75;97915.97;4995106;28;20022;-72
2021/07/13 06:40:46;;;;;;;4.80;2.45;;;;;;;19.62;87.45;97909.34;4995248;28;20030;-78
2021/07/13 06:43:11;;;;;;;11.10;2.58;;;;;;;19.68;85.88;97898.41;4995238;28;20438;-73
2021/07/13 06:45:37;;;;;;;3.33;1.80;;;;;;;19.66;87.92;97902.94;4995258;28;20057;-79
2021/07/13 06:48:03;;;;;;;9.70;2.67;;;;;;;19.68;86.74;97893.16;4995067;28;20529;-78
2021/07/13 06:50:28;;;;;;;5.30;2.15;;;;;;;20.05;86.21;97906.34;4995051;28;20038;-73
2021/07/13 06:52:54;;;;;;;5.90;2.78;;;;;;;19.99;84.72;97919.94;4995195;28;20022;-79
2021/07/13 06:55:20;;;;;;;4.05;2.50;;;;;;;19.80;87.38;97917.75;4995455;28;20030;-79
2021/07/13 06:57:46;;;;;;;5.40;2.20;;;;;;;19.66;87.52;97926.59;4994854;28;20033;-78
2021/07/13 07:00:12;;;;;;;6.53;2.40;;;;;;;19.45;88.14;97943.78;4995318;28;20501;-79
2021/07/13 07:02:38;;;;;;;4.70;2.33;;;;;;;19.31;89.12;97957.00;4995009;28;20033;-79
2021/07/13 07:05:03;;;;;;;4.05;2.40;;;;;;;19.25;90.07;97948.59;4994943;28;20026;-73
2021/07/13 07:07:29;;;;;;;6.32;2.33;;;;;;;19.07;89.45;97944.56;4994606;28;20081;-78
2021/07/13 07:09:54;;;;;;;10.93;2.83;;;;;;;19.01;90.00;97955.47;4994951;28;20030;-79
2021/07/13 07:12:20;;;;;;;4.57;2.53;;;;;;;18.89;89.76;97966.75;4994600;28;20101;-78
2021/07/13 07:14:45;;;;;;;5.68;2.80;;;;;;;18.84;90.64;97984.59;4994743;28;20053;-78
2021/07/13 07:17:10;;;;;;;5.10;2.67;;;;;;;18.76;90.70;97990.34;4994536;28;20022;-79
2021/07/13 07:19:36;;;;;;;6.13;3.10;;;;;;;18.68;91.74;97996.06;4994918;28;20455;-73
2021/07/13 07:22:02;;;;;;;5.93;2.97;;;;;;;18.58;93.00;97994.94;4994521;28;20033;-72
2021/07/13 07:24:27;;;;;;;5.35;3.00;;;;;;;18.59;94.49;97990.53;4994582;28;20026;-73
2021/07/13 07:26:53;;;;;;;10.20;3.25;;;;;;;18.43;96.88;97964.41;4992924;28;20460;-73
2021/07/13 07:29:18;;;;;;;5.95;3.47;;;;;;;18.23;99.37;97948.16;4994452;28;20034;-73
2021/07/13 07:31:43;;;;;;;7.45;3.15;;;;;;;18.46;98.14;97953.72;4994200;28;20026;-73
2021/07/13 07:34:09;;;;;;;10.13;3.20;;;;;;;18.55;98.71;97934.78;4994545;28;20452;-73
2021/07/13 07:36:34;;;;;;;6.40;3.40;;;;;;;18.91;96.06;97938.63;4994037;28;20022;-73
2021/07/13 07:39:00;;;;;;;5.63;3.80;;;;;;;18.89;93.99;97941.34;4987302;28;20023;-73
2021/07/13 07:41:25;;;;;;;6.13;3.47;;;;;;;18.69;95.81;97950.50;4991800;28;20089;-73
2021/07/13 07:43:51;;;;;;;8.52;3.97;;;;;;;18.70;97.24;97977.59;4991037;28;20061;-73
2021/07/13 07:46:16;;;;;;;6.28;3.20;;;;;;;18.51;96.58;97993.63;4990631;28;20105;-73
2021/07/13 07:48:42;;;;;;;3.90;3.10;;;;;;;18.44;98.42;97987.09;4991975;28;20062;-73
2021/07/13 07:51:08;;;;;;;5.85;3.33;;;;;;;18.31;99.97;97988.78;4991007;28;20030;-73
2021/07/13 07:53:33;;;;;;;5.97;3.30;;;;;;;18.29;99.98;97988.03;4993658;28;20033;-73
2021/07/13 07:55:59;;;;;;;7.15;3.47;;;;;;;18.08;99.95;97982.31;4993618;28;20030;-73
2021/07/13 07:58:24;;;;;;;6.03;3.55;;;;;;;17.94;100.00;97972.69;4993644;28;20018;-79
2021/07/13 08:00:50;;;;;;;5.82;3.35;;;;;;;18.06;100.00;97977.19;4992979;28;20038;-78
2021/07/13 08:03:15;;;;;;;5.22;3.38;;;;;;;18.23;100.00;97963.06;4993130;28;20449;-73
2021/07/13 08:05:42;;;;;;;9.00;3.80;;;;;;;18.00;100.00;97929.53;4993525;28;20030;-73
2021/07/13 08:08:08;;;;;;;4.60;4.18;;;;;;;17.96;100.00;97910.53;4993335;28;20387;-73
2021/07/13 08:10:33;;;;;;;5.22;3.88;;;;;;;18.18;100.00;97918.75;4992073;28;20033;-73
2021/07/13 08:13:00;;;;;;;5.85;3.72;;;;;;;18.84;98.42;97942.59;4992847;28;20031;-73
2021/07/13 08:15:26;;;;;;;7.28;4.22;;;;;;;18.93;98.42;97968.25;4993206;28;20037;-73
2021/07/13 08:17:53;;;;;;;7.70;3.50;;;;;;;18.86;98.49;97961.72;4993138;28;20048;-73
2021/07/13 08:20:19;;;;;;;7.78;3.67;;;;;;;18.85;98.10;97967.88;4993358;28;20097;-73
2021/07/13 08:22:46;;;;;;;7.75;4.03;;;;;;;18.84;98.34;97980.16;4993328;28;20110;-73
2021/07/13 08:25:11;;;;;;;9.73;4.40;;;;;;;18.81;99.59;97975.13;4992406;28;20109;-78
2021/07/13 08:27:37;;;;;;;7.32;3.78;;;;;;;18.92;98.68;97963.94;4992966;28;20105;-79
2021/07/13 08:30:04;;;;;;;12.65;5.68;;;;;;;19.04;98.07;97959.66;4993099;28;20053;-79
2021/07/13 08:32:29;;;;;;;12.90;5.22;;;;;;;18.98;97.21;97971.41;4992997;28;20438;-73
2021/07/13 08:34:55;;;;;;;11.43;5.00;;;;;;;19.08;98.58;97954.09;4983183;28;20076;-79
2021/07/13 08:37:21;;;;;;;9.82;5.13;;;;;;;19.06;97.16;97963.88;4972746;28;20046;-79
2021/07/13 08:39:47;;;;;;;6.55;4.88;;;;;;;19.05;96.98;97962.22;4973496;28;20027;-73
2021/07/13 08:42:13;;;;;;;8.95;4.10;;;;;;;18.99;96.80;97954.72;4973491;28;20034;-73
2021/07/13 08:44:39;;;;;;;3.83;2.97;;;;;;;18.84;98.36;97953.09;4973445;28;20034;-78
2021/07/13 08:47:04;;;;;;;5.57;3.42;;;;;;;18.76;97.04;97956.22;4972897;28;20019;-77
2021/07/13 08:49:29;;;;;;;7.45;2.92;;;;;;;18.77;97.19;97957.06;4971815;28;20069;-72
2021/07/13 08:51:55;;;;;;;6.75;2.55;;;;;;;18.81;97.14;97963.78;4973239;28;20037;-78
2021/07/13 08:54:20;;;;;;;4.28;2.70;;;;;;;18.72;97.43;97970.47;4973167;28;20539;-73
2021/07/13 08:56:46;;;;;;;5.95;2.97;;;;;;;18.60;97.60;97977.28;4973105;28;20472;-78
2021/07/13 08:59:11;;;;;;;10.63;3.45;;;;;;;18.64;97.74;97972.69;4972583;28;20026;-79
2021/07/13 09:01:36;;;;;;;4.75;2.63;;;;;;;18.72;98.85;97971.31;4973125;28;20511;-73
2021/07/13 09:04:05;;;;;;;3.97;3.10;;;;;;;18.70;98.86;97978.44;4973134;28;20054;-73
2021/07/13 09:06:55;;;;;;;6.40;2.17;;;;;;;18.81;97.52;97984.75;4972912;28;20030;-78
2021/07/13 09:09:30;;;;;;;4.97;2.78;;;;;;;18.72;96.58;97981.81;4973246;28;20497;-73
2021/07/13 09:12:25;;;;;;;5.35;2.90;;;;;;;18.61;96.28;97991.25;4977420;28;20531;-72
2021/07/13 09:14:58;;;;;;;3.92;1.90;;;;;;;18.76;95.92;97990.34;4968405;28;20038;-78
2021/07/13 09:17:41;;;;;;;7.13;3.05;;;;;;;18.47;98.62;97997.41;4973074;28;20434;-78
2021/07/13 09:20:12;;;;;;;3.10;2.28;;;;;;;18.54;98.78;98009.19;4972887;28;20027;-78
2021/07/13 09:22:50;;;;;;;4.00;2.15;;;;;;;18.65;97.14;98011.13;4972320;28;20046;-79
2021/07/13 09:25:25;;;;;;;3.28;2.53;;;;;;;18.61;97.87;98020.97;4973026;28;20093;-78
2021/07/13 09:28:14;;;;;;;3.03;2.38;;;;;;;18.73;97.39;98006.28;4972713;28;20023;-79
2021/07/13 09:30:46;;;;;;;5.85;2.33;;;;;;;18.73;96.94;97983.50;4972814;28;20396;-72
2021/07/13 09:33:19;;;;;;;8.00;2.42;;;;;;;18.50;97.89;98005.06;4972272;28;20031;-72
2021/07/13 09:36:09;;;;;;;4.03;2.58;;;;;;;18.34;98.88;98013.03;4972773;28;20058;-79
2021/07/13 09:38:41;;;;;;;4.47;2.28;;;;;;;18.16;97.51;98022.88;4988003;28;20053;-79
2021/07/13 09:41:09;;;;;;;3.42;1.63;;;;;;;18.08;98.86;98025.09;5011620;28;20029;-72
2021/07/13 09:43:45;;;;;;;2.35;1.30;;;;;;;17.84;98.45;98029.19;5008425;28;20025;-73
2021/07/13 09:46:25;;;;;;;2.47;0.73;;;;;;;17.63;98.74;98037.38;5010725;28;20359;-72
2021/07/13 09:49:10;;;;;;;2.22;1.63;;;;;;;17.52;99.46;98049.41;5011741;28;20026;-72
2021/07/13 09:51:37;;;;;;;3.45;0.88;;;;;;;17.36;99.80;98057.31;5011628;28;20483;-73
2021/07/13 09:54:03;;;;;;;1.52;0.77;;;;;;;17.12;100.00;98055.16;5014564;28;20036;-77
2021/07/13 09:56:44;;;;;;;2.35;0.80;;;;;;;17.02;100.00;98063.59;5010851;28;20032;-78
2021/07/13 09:59:09;;;;;;;0.55;0.50;;;;;;;16.92;100.00;98077.19;5011643;28;20022;-77
2021/07/13 10:01:35;;;;;;;6.40;0.90;;;;;;;16.96;100.00;98104.03;5010460;28;20740;-73
2021/07/13 10:04:01;;;;;;;3.92;0.80;;;;;;;16.92;100.00;98121.69;5011461;28;20025;-79
2021/07/13 10:06:31;;;;;;;5.72;1.08;;;;;;;16.55;100.00;98117.53;5009520;28;20041;-79
2021/07/13 10:09:00;;;;;;;3.58;0.73;;;;;;;16.60;100.00;98076.28;5016206;28;20079;-79
2021/07/13 10:11:28;;;;;;;1.75;0.40;;;;;;;16.88;100.00;98075.69;5018040;28;20105;-79
2021/07/13 10:13:56;;;;;;;4.45;0.75;;;;;;;16.98;98.91;98056.84;5013054;28;20165;-79
2021/07/13 10:16:22;;;;;;;0.50;0.30;;;;;;;17.57;97.04;98042.97;5011093;28;20567;-80
2021/07/13 10:18:47;;;;;;;1.30;0.30;;;;;;;18.33;93.59;98052.50;5014758;28;20100;-79
2021/07/13 10:21:15;;;;;;;0.95;0.38;;;;;;;18.26;92.45;98053.78;5014674;28;20110;-79
2021/07/13 10:23:44;;;;;;;0.30;0.30;;;;;;;17.67;94.89;98049.38;5012313;28;20026;-79
2021/07/13 10:26:11;;;;;;;0.32;0.32;;;;;;;17.51;95.82;98058.22;5014786;28;20034;-73
2021/07/13 10:28:37;;;;;;;0.38;0.38;;;;;;;17.32;93.86;98063.66;5014928;28;20505;-79
2021/07/13 10:31:03;;;;;;;0.90;0.38;;;;;;;16.91;96.10;98053.72;5013203;28;20487;-72
2021/07/13 10:33:35;;;;;;;0.75;0.32;;;;;;;17.03;98.06;98058.28;5014764;28;20030;-72
2021/07/13 10:36:26;;;;;;;1.85;0.40;;;;;;;17.23;96.80;98075.50;5014686;28;20371;-72
2021/07/13 10:39:28;;;;;;;0.50;0.40;;;;;;;17.12;96.14;98104.91;5019986;28;20470;-72
2021/07/13 10:41:55;;;;;;;1.30;0.40;;;;;;;17.09;96.15;98120.75;5014090;28;20032;-72
2021/07/13 10:44:51;;;;;;;3.05;0.38;;;;;;;16.97;96.22;98142.38;5014278;28;20018;-72
2021/07/13 10:47:19;;;;;;;0.52;0.35;;;;;;;16.88;97.87;98158.56;5013160;28;20065;-72
2021/07/13 10:49:44;;;;;;;1.90;0.57;;;;;;;16.75;97.13;98175.84;5021969;28;20061;-72
2021/07/13 10:52:48;;;;;;;0.60;0.40;;;;;;;16.70;99.03;98182.13;5011958;28;20060;-79
2021/07/13 10:55:31;;;;;;;3.15;0.60;;;;;;;16.63;98.61;98180.78;5013678;28;20029;-79
2021/07/13 10:58:09;;;;;;;1.77;0.50;;;;;;;16.66;99.96;98167.50;5014341;28;20261;-77
2021/07/13 11:00:59;;;;;;;1.00;0.50;;;;;;;16.62;98.30;98163.34;5012587;28;20029;-78
2021/07/13 11:03:27;;;;;;;0.57;0.57;;;;;;;16.57;99.86;98149.69;5014370;28;20030;-78
2021/07/13 11:05:53;;;;;;;0.80;0.55;;;;;;;16.93;98.90;98125.16;5013194;28;20037;-79
2021/07/13 11:08:40;;;;;;;3.55;0.77;;;;;;;17.04;97.57;98125.41;5014178;28;20022;-78
2021/07/13 11:11:09;;;;;;;1.00;0.70;;;;;;;17.17;96.67;98129.03;5014089;28;20479;-79
2021/07/13 11:13:36;;;;;;;2.75;0.45;;;;;;;17.27;95.62;98139.00;5014251;28;20026;-79
2021/07/13 11:16:02;;;;;;;2.90;1.20;;;;;;;17.23;93.72;98153.19;5013707;28;20529;-79
2021/07/13 11:18:29;;;;;;;1.40;0.40;;;;;;;16.97;89.83;98158.09;5013448;28;20025;-78
2021/07/13 11:20:55;;;;;;;1.45;0.50;;;;;;;17.32;88.39;98157.94;5013917;28;20490;-73
2021/07/13 11:23:27;;;;;;;3.20;0.80;;;;;;;17.59;84.50;98161.59;5013897;28;20029;-73
2021/07/13 11:26:06;;;;;;;1.13;0.30;;;;;;;17.83;87.13;98169.88;5012727;28;20115;-78
2021/07/13 11:28:35;;;;;;;1.15;0.30;;;;;;;18.00;83.97;98174.16;5013364;28;20022;-79
2021/07/13 11:31:02;;;;;;;0.43;0.40;;;;;;;18.27;84.60;98174.31;5013630;28;20038;-79
2021/07/13 11:33:28;;;;;;;4.68;0.70;;;;;;;18.29;85.49;98179.50;5013679;28;20026;-79
2021/07/13 11:36:00;;;;;;;1.60;1.48;;;;;;;18.12;82.64;98190.97;5008833;28;20407;-79
2021/07/13 11:38:34;;;;;;;1.02;0.90;;;;;;;17.77;82.55;98211.31;5004087;28;20022;-73
2021/07/13 11:41:16;;;;;;;0.35;0.30;;;;;;;17.17;85.42;98212.81;5000830;28;20022;-73
2021/07/13 11:43:43;;;;;;;1.25;0.43;;;;;;;17.22;87.24;98199.47;4999904;28;20034;-73
2021/07/13 11:46:11;;;;;;;0.25;0.25;;;;;;;17.20;87.84;98212.63;5003942;28;20065;-72
2021/07/13 11:48:37;;;;;;;0.57;0.30;;;;;;;17.40;88.34;98208.09;5000606;28;20185;-78
2021/07/13 11:51:03;;;;;;;1.73;0.40;;;;;;;17.23;87.74;98200.31;5002778;28;20145;-78
2021/07/13 11:53:31;;;;;;;2.38;0.40;;;;;;;17.44;87.85;98188.66;5003201;28;20144;-73
2021/07/13 11:56:01;;;;;;;1.08;0.30;;;;;;;17.81;85.92;98191.88;4999202;28;20614;-73
2021/07/13 11:58:28;;;;;;;0.55;0.45;;;;;;;18.01;84.72;98191.59;4999801;28;20032;-73
2021/07/13 12:00:54;;;;;;;1.17;0.55;;;;;;;18.09;87.41;98207.72;5000405;28;20056;-73
2021/07/13 12:03:29;;;;;;;1.75;0.50;;;;;;;18.12;89.05;98217.19;5002311;28;20030;-79
2021/07/13 12:06:11;;;;;;;0.93;0.70;;;;;;;18.18;85.79;98206.31;4998193;28;20029;-79
2021/07/13 12:08:37;;;;;;;3.92;0.60;;;;;;;17.98;85.81;98200.44;5000661;28;20030;-77
2021/07/13 12:11:03;;;;;;;0.98;0.55;;;;;;;18.18;86.27;98196.72;5000621;28;20034;-72
2021/07/13 12:13:28;;;;;;;4.63;0.47;;;;;;;18.24;84.92;98206.84;5001137;28;20092;-73
2021/07/13 12:15:53;;;;;;;0.30;0.30;;;;;;;18.26;84.40;98206.72;5003436;28;20037;-73
2021/07/13 12:18:19;;;;;;;3.60;0.50;;;;;;;18.40;86.36;98200.69;5000235;28;20105;-78
2021/07/13 12:20:44;;;;;;;3.67;0.50;;;;;;;18.44;82.93;98212.69;4997450;28;20072;-78
2021/07/13 12:23:10;;;;;;;2.10;0.50;;;;;;;18.87;81.25;98211.00;5000132;28;20398;-78
2021/07/13 12:25:36;;;;;;;1.85;0.63;;;;;;;18.60;79.94;98225.75;5001377;28;20030;-73
2021/07/13 12:28:11;;;;;;;4.72;0.73;;;;;;;18.67;80.97;98238.41;4996505;28;20037;-74
2021/07/13 12:30:36;;;;;;;0.93;0.50;;;;;;;18.43;81.69;98238.09;5003051;28;20030;-73
